GLD1794 LPPD-LPPI
Flight info
| Callsign | GLD1794 |
|---|---|
| Flight time | 0h 41m |
| Altitude | 20000 |
| Route | TIMTO DCT GOXAS DCT ORPIC |
| Aircraft | A320/M-SDE3FGHIRWY/LB1 |
Departure
| Time | 2026-05-08 11:05 |
|---|---|
| Airport | João Paulo II Airport (LPPD) |
Arrival
| Time | 2026-05-08 11:47 |
|---|---|
| Airport | Pico Airport (LPPI) |
| Time | Latitude | Longitude | Altitude | Speed | Heading |
|---|---|---|---|---|---|
| 2026-05-08 10:57 | 37.74131 | -25.70068 | 240 ft | 0 kts | 76° |
| 2026-05-08 11:00 | 37.74142 | -25.70056 | 240 ft | 5 kts | 40° |
| 2026-05-08 11:00 | 37.74167 | -25.70011 | 238 ft | 9 kts | 89° |
| 2026-05-08 11:01 | 37.74200 | -25.69936 | 240 ft | 12 kts | 43° |
| 2026-05-08 11:01 | 37.74219 | -25.69825 | 234 ft | 15 kts | 111° |
| 2026-05-08 11:01 | 37.74180 | -25.69700 | 230 ft | 16 kts | 111° |
| 2026-05-08 11:01 | 37.74135 | -25.69559 | 222 ft | 19 kts | 112° |
| 2026-05-08 11:02 | 37.74089 | -25.69413 | 217 ft | 17 kts | 112° |
| 2026-05-08 11:02 | 37.73993 | -25.69121 | 208 ft | 19 kts | 110° |
| 2026-05-08 11:02 | 37.73946 | -25.68966 | 207 ft | 21 kts | 112° |
| 2026-05-08 11:03 | 37.73901 | -25.68821 | 201 ft | 10 kts | 109° |
| 2026-05-08 11:03 | 37.73873 | -25.68729 | 197 ft | 12 kts | 112° |
| 2026-05-08 11:03 | 37.73842 | -25.68633 | 191 ft | 13 kts | 114° |
| 2026-05-08 11:03 | 37.73783 | -25.68559 | 184 ft | 12 kts | 152° |
| 2026-05-08 11:04 | 37.73742 | -25.68489 | 191 ft | 10 kts | 76° |
| 2026-05-08 11:04 | 37.73790 | -25.68484 | 184 ft | 9 kts | 312° |
| 2026-05-08 11:04 | 37.73820 | -25.68564 | 186 ft | 12 kts | 291° |
| 2026-05-08 11:04 | 37.73906 | -25.68833 | 196 ft | 68 kts | 291° |
| 2026-05-08 11:05 | 37.74164 | -25.69651 | 231 ft | 129 kts | 291° |
| 2026-05-08 11:05 | 37.74527 | -25.70792 | 636 ft | 143 kts | 300° |
| 2026-05-08 11:05 | 37.74864 | -25.71992 | 1334 ft | 147 kts | 296° |
| 2026-05-08 11:05 | 37.75114 | -25.73247 | 2112 ft | 150 kts | 292° |
| 2026-05-08 11:06 | 37.75307 | -25.74641 | 2585 ft | 174 kts | 287° |
| 2026-05-08 11:06 | 37.75457 | -25.76260 | 2973 ft | 198 kts | 287° |
| 2026-05-08 11:06 | 37.75630 | -25.78099 | 3403 ft | 223 kts | 285° |
| 2026-05-08 11:06 | 37.75815 | -25.80154 | 3967 ft | 246 kts | 284° |
| 2026-05-08 11:07 | 37.76002 | -25.82350 | 4873 ft | 255 kts | 283° |
| 2026-05-08 11:07 | 37.76187 | -25.84602 | 5826 ft | 260 kts | 283° |
| 2026-05-08 11:07 | 37.76371 | -25.86889 | 6822 ft | 263 kts | 283° |
| 2026-05-08 11:07 | 37.76561 | -25.89202 | 7776 ft | 266 kts | 283° |
| 2026-05-08 11:08 | 37.77023 | -25.91430 | 8687 ft | 261 kts | 301° |
| 2026-05-08 11:08 | 37.77812 | -25.93504 | 9661 ft | 263 kts | 302° |
| 2026-05-08 11:08 | 37.78621 | -25.95590 | 10341 ft | 276 kts | 302° |
| 2026-05-08 11:08 | 37.79509 | -25.97852 | 10690 ft | 298 kts | 302° |
| 2026-05-08 11:09 | 37.80443 | -26.00246 | 11362 ft | 307 kts | 301° |
| 2026-05-08 11:09 | 37.81390 | -26.02701 | 12194 ft | 312 kts | 301° |
| 2026-05-08 11:09 | 37.82342 | -26.05189 | 13042 ft | 316 kts | 301° |
| 2026-05-08 11:09 | 37.83302 | -26.07709 | 13859 ft | 320 kts | 301° |
| 2026-05-08 11:10 | 37.84275 | -26.10260 | 14597 ft | 323 kts | 301° |
| 2026-05-08 11:10 | 37.84923 | -26.11959 | 15109 ft | 325 kts | 301° |
| 2026-05-08 11:10 | 37.85905 | -26.14536 | 15887 ft | 326 kts | 301° |
| 2026-05-08 11:10 | 37.86896 | -26.17132 | 16659 ft | 328 kts | 301° |
| 2026-05-08 11:11 | 37.87892 | -26.19743 | 17422 ft | 331 kts | 301° |
| 2026-05-08 11:11 | 37.88897 | -26.22379 | 18174 ft | 333 kts | 301° |
| 2026-05-08 11:11 | 37.89905 | -26.25029 | 18830 ft | 335 kts | 301° |
| 2026-05-08 11:11 | 37.90919 | -26.27694 | 19455 ft | 337 kts | 301° |
| 2026-05-08 11:12 | 37.91943 | -26.30378 | 19874 ft | 339 kts | 302° |
| 2026-05-08 11:12 | 37.92966 | -26.33059 | 19998 ft | 336 kts | 302° |
| 2026-05-08 11:12 | 37.93954 | -26.35672 | 20018 ft | 324 kts | 302° |
| 2026-05-08 11:12 | 37.94920 | -26.38227 | 20026 ft | 320 kts | 302° |
| 2026-05-08 11:13 | 37.95881 | -26.40767 | 20024 ft | 319 kts | 302° |
| 2026-05-08 11:13 | 37.96841 | -26.43304 | 20026 ft | 319 kts | 302° |
| 2026-05-08 11:13 | 37.97803 | -26.45838 | 20027 ft | 319 kts | 302° |
| 2026-05-08 11:13 | 37.98765 | -26.48375 | 20027 ft | 319 kts | 302° |
| 2026-05-08 11:14 | 37.99723 | -26.50911 | 20036 ft | 319 kts | 302° |
| 2026-05-08 11:14 | 38.00681 | -26.53450 | 20041 ft | 319 kts | 302° |
| 2026-05-08 11:14 | 38.01640 | -26.55992 | 20038 ft | 319 kts | 302° |
| 2026-05-08 11:14 | 38.02600 | -26.58528 | 20007 ft | 319 kts | 302° |
| 2026-05-08 11:15 | 38.03559 | -26.61062 | 20011 ft | 319 kts | 302° |
| 2026-05-08 11:15 | 38.04518 | -26.63599 | 20022 ft | 319 kts | 302° |
| 2026-05-08 11:15 | 38.05478 | -26.66147 | 20026 ft | 319 kts | 302° |
| 2026-05-08 11:15 | 38.06434 | -26.68685 | 20030 ft | 319 kts | 302° |
| 2026-05-08 11:16 | 38.07390 | -26.71234 | 20031 ft | 319 kts | 302° |
| 2026-05-08 11:16 | 38.08341 | -26.73778 | 20033 ft | 319 kts | 301° |
| 2026-05-08 11:16 | 38.09292 | -26.76327 | 20043 ft | 319 kts | 301° |
| 2026-05-08 11:16 | 38.10243 | -26.78877 | 20046 ft | 319 kts | 302° |
| 2026-05-08 11:17 | 38.11196 | -26.81424 | 20048 ft | 319 kts | 302° |
| 2026-05-08 11:17 | 38.12148 | -26.83969 | 20049 ft | 319 kts | 302° |
| 2026-05-08 11:17 | 38.13100 | -26.86511 | 20050 ft | 319 kts | 302° |
| 2026-05-08 11:17 | 38.14053 | -26.89057 | 20031 ft | 319 kts | 301° |
| 2026-05-08 11:18 | 38.15007 | -26.91607 | 20034 ft | 319 kts | 301° |
| 2026-05-08 11:18 | 38.15956 | -26.94155 | 20036 ft | 319 kts | 301° |
| 2026-05-08 11:18 | 38.16905 | -26.96710 | 20039 ft | 320 kts | 301° |
| 2026-05-08 11:18 | 38.17842 | -26.99236 | 20051 ft | 320 kts | 301° |
| 2026-05-08 11:19 | 38.18791 | -27.01797 | 20051 ft | 320 kts | 301° |
| 2026-05-08 11:19 | 38.19740 | -27.04349 | 20048 ft | 319 kts | 301° |
| 2026-05-08 11:19 | 38.20677 | -27.06875 | 19811 ft | 311 kts | 301° |
| 2026-05-08 11:19 | 38.21590 | -27.09346 | 19569 ft | 306 kts | 301° |
| 2026-05-08 11:20 | 38.22494 | -27.11786 | 19338 ft | 304 kts | 301° |
| 2026-05-08 11:20 | 38.23395 | -27.14215 | 19099 ft | 303 kts | 301° |
| 2026-05-08 11:20 | 38.24297 | -27.16642 | 18860 ft | 302 kts | 301° |
| 2026-05-08 11:20 | 38.25195 | -27.19058 | 18611 ft | 301 kts | 301° |
| 2026-05-08 11:21 | 38.26075 | -27.21445 | 18334 ft | 295 kts | 301° |
| 2026-05-08 11:21 | 38.26944 | -27.23802 | 17945 ft | 293 kts | 301° |
| 2026-05-08 11:21 | 38.27803 | -27.26139 | 17585 ft | 289 kts | 301° |
| 2026-05-08 11:21 | 38.28652 | -27.28446 | 17214 ft | 287 kts | 301° |
| 2026-05-08 11:22 | 38.29495 | -27.30732 | 16856 ft | 284 kts | 301° |
| 2026-05-08 11:22 | 38.30329 | -27.33004 | 16502 ft | 282 kts | 301° |
| 2026-05-08 11:22 | 38.31147 | -27.35229 | 16160 ft | 280 kts | 301° |
| 2026-05-08 11:22 | 38.31982 | -27.37500 | 15816 ft | 279 kts | 301° |
| 2026-05-08 11:23 | 38.32800 | -27.39728 | 15473 ft | 277 kts | 301° |
| 2026-05-08 11:23 | 38.33606 | -27.41920 | 15135 ft | 276 kts | 301° |
| 2026-05-08 11:23 | 38.34421 | -27.44134 | 14797 ft | 275 kts | 301° |
| 2026-05-08 11:23 | 38.35230 | -27.46341 | 14458 ft | 275 kts | 301° |
| 2026-05-08 11:24 | 38.36035 | -27.48541 | 14106 ft | 274 kts | 300° |
| 2026-05-08 11:24 | 38.36839 | -27.50739 | 13769 ft | 273 kts | 300° |
| 2026-05-08 11:24 | 38.37640 | -27.52925 | 13408 ft | 272 kts | 300° |
| 2026-05-08 11:24 | 38.38436 | -27.55103 | 13081 ft | 270 kts | 301° |
| 2026-05-08 11:25 | 38.39226 | -27.57266 | 12727 ft | 269 kts | 301° |
| 2026-05-08 11:25 | 38.40013 | -27.59421 | 12381 ft | 267 kts | 301° |
| 2026-05-08 11:25 | 38.40793 | -27.61562 | 12045 ft | 266 kts | 301° |
| 2026-05-08 11:25 | 38.41569 | -27.63693 | 11701 ft | 264 kts | 301° |
| 2026-05-08 11:26 | 38.42342 | -27.65816 | 11353 ft | 263 kts | 301° |
| 2026-05-08 11:26 | 38.43108 | -27.67929 | 11007 ft | 262 kts | 301° |
| 2026-05-08 11:26 | 38.43873 | -27.70036 | 10660 ft | 261 kts | 301° |
| 2026-05-08 11:26 | 38.44622 | -27.72105 | 10525 ft | 252 kts | 301° |
| 2026-05-08 11:27 | 38.45347 | -27.74109 | 10303 ft | 247 kts | 301° |
| 2026-05-08 11:27 | 38.46066 | -27.76085 | 9996 ft | 245 kts | 301° |
| 2026-05-08 11:27 | 38.46774 | -27.78037 | 9453 ft | 241 kts | 301° |
| 2026-05-08 11:27 | 38.47478 | -27.79981 | 8865 ft | 240 kts | 301° |
| 2026-05-08 11:28 | 38.48177 | -27.81915 | 8475 ft | 241 kts | 301° |
| 2026-05-08 11:28 | 38.48881 | -27.83855 | 8113 ft | 240 kts | 301° |
| 2026-05-08 11:28 | 38.49582 | -27.85793 | 7758 ft | 239 kts | 301° |
| 2026-05-08 11:28 | 38.50275 | -27.87716 | 7391 ft | 238 kts | 301° |
| 2026-05-08 11:29 | 38.50968 | -27.89632 | 7029 ft | 238 kts | 300° |
| 2026-05-08 11:29 | 38.51659 | -27.91549 | 6661 ft | 236 kts | 300° |
| 2026-05-08 11:29 | 38.52345 | -27.93450 | 6272 ft | 235 kts | 300° |
| 2026-05-08 11:29 | 38.53020 | -27.95324 | 5893 ft | 234 kts | 300° |
| 2026-05-08 11:30 | 38.53692 | -27.97197 | 5705 ft | 230 kts | 300° |
| 2026-05-08 11:30 | 38.54365 | -27.99064 | 5641 ft | 230 kts | 300° |
| 2026-05-08 11:30 | 38.55019 | -28.00881 | 5549 ft | 223 kts | 300° |
| 2026-05-08 11:30 | 38.55664 | -28.02673 | 5458 ft | 221 kts | 300° |
| 2026-05-08 11:31 | 38.56303 | -28.04455 | 5362 ft | 220 kts | 300° |
| 2026-05-08 11:31 | 38.56942 | -28.06233 | 5262 ft | 220 kts | 301° |
| 2026-05-08 11:31 | 38.57579 | -28.08009 | 5154 ft | 220 kts | 301° |
| 2026-05-08 11:31 | 38.58217 | -28.09786 | 5054 ft | 220 kts | 301° |
| 2026-05-08 11:32 | 38.58636 | -28.11691 | 4939 ft | 231 kts | 278° |
| 2026-05-08 11:32 | 38.58491 | -28.13759 | 4671 ft | 234 kts | 270° |
| 2026-05-08 11:32 | 38.58271 | -28.15807 | 4365 ft | 231 kts | 270° |
| 2026-05-08 11:32 | 38.58064 | -28.17830 | 4049 ft | 228 kts | 270° |
| 2026-05-08 11:33 | 38.57866 | -28.19833 | 3744 ft | 226 kts | 270° |
| 2026-05-08 11:33 | 38.57670 | -28.21809 | 3445 ft | 223 kts | 269° |
| 2026-05-08 11:33 | 38.57477 | -28.23751 | 3142 ft | 216 kts | 269° |
| 2026-05-08 11:33 | 38.57290 | -28.25617 | 2857 ft | 207 kts | 271° |
| 2026-05-08 11:34 | 38.57111 | -28.27403 | 2593 ft | 198 kts | 272° |
| 2026-05-08 11:34 | 38.56942 | -28.29083 | 2338 ft | 183 kts | 270° |
| 2026-05-08 11:34 | 38.56788 | -28.30615 | 2083 ft | 166 kts | 271° |
| 2026-05-08 11:34 | 38.56647 | -28.32005 | 1889 ft | 150 kts | 276° |
| 2026-05-08 11:35 | 38.56520 | -28.33278 | 1681 ft | 141 kts | 276° |
| 2026-05-08 11:35 | 38.56399 | -28.34514 | 1478 ft | 139 kts | 274° |
| 2026-05-08 11:35 | 38.56278 | -28.35736 | 1301 ft | 139 kts | 274° |
| 2026-05-08 11:35 | 38.56156 | -28.36960 | 1107 ft | 139 kts | 273° |
| 2026-05-08 11:36 | 38.56069 | -28.38150 | 1094 ft | 130 kts | 281° |
| 2026-05-08 11:36 | 38.56345 | -28.39205 | 1109 ft | 126 kts | 303° |
| 2026-05-08 11:36 | 38.56762 | -28.40194 | 1105 ft | 127 kts | 306° |
| 2026-05-08 11:36 | 38.57178 | -28.41169 | 1107 ft | 126 kts | 307° |
| 2026-05-08 11:37 | 38.57392 | -28.42280 | 1103 ft | 139 kts | 275° |
| 2026-05-08 11:37 | 38.57274 | -28.43508 | 1105 ft | 138 kts | 275° |
| 2026-05-08 11:37 | 38.57170 | -28.44712 | 1108 ft | 135 kts | 274° |
| 2026-05-08 11:37 | 38.57070 | -28.45920 | 1107 ft | 135 kts | 274° |
| 2026-05-08 11:38 | 38.56974 | -28.47090 | 1109 ft | 134 kts | 274° |
| 2026-05-08 11:38 | 38.56878 | -28.48274 | 1109 ft | 134 kts | 274° |
| 2026-05-08 11:38 | 38.56781 | -28.49476 | 1108 ft | 138 kts | 275° |
| 2026-05-08 11:38 | 38.56374 | -28.50637 | 1117 ft | 155 kts | 232° |
| 2026-05-08 11:39 | 38.55383 | -28.51234 | 1118 ft | 164 kts | 183° |
| 2026-05-08 11:39 | 38.54342 | -28.50809 | 1084 ft | 157 kts | 133° |
| 2026-05-08 11:39 | 38.53997 | -28.49672 | 1025 ft | 132 kts | 69° |
| 2026-05-08 11:39 | 38.54402 | -28.48647 | 803 ft | 130 kts | 51° |
| 2026-05-08 11:40 | 38.54870 | -28.47674 | 650 ft | 128 kts | 60° |
| 2026-05-08 11:40 | 38.55171 | -28.46529 | 636 ft | 153 kts | 73° |
| 2026-05-08 11:40 | 38.55361 | -28.45030 | 1221 ft | 184 kts | 79° |
| 2026-05-08 11:40 | 38.55504 | -28.43385 | 2040 ft | 186 kts | 77° |
| 2026-05-08 11:41 | 38.55580 | -28.41776 | 2093 ft | 179 kts | 79° |
| 2026-05-08 11:41 | 38.55718 | -28.40229 | 2091 ft | 170 kts | 66° |
| 2026-05-08 11:41 | 38.56284 | -28.39037 | 1970 ft | 148 kts | 27° |
| 2026-05-08 11:41 | 38.57189 | -28.38694 | 1755 ft | 135 kts | 355° |
| 2026-05-08 11:42 | 38.58092 | -28.38903 | 1438 ft | 132 kts | 346° |
| 2026-05-08 11:42 | 38.58981 | -28.39262 | 1099 ft | 133 kts | 336° |
| 2026-05-08 11:42 | 38.59555 | -28.40217 | 1097 ft | 144 kts | 288° |
| 2026-05-08 11:42 | 38.59490 | -28.41480 | 1112 ft | 142 kts | 268° |
| 2026-05-08 11:43 | 38.59287 | -28.42698 | 1105 ft | 140 kts | 267° |
| 2026-05-08 11:43 | 38.59060 | -28.43920 | 1107 ft | 142 kts | 266° |
| 2026-05-08 11:43 | 38.58821 | -28.45144 | 1109 ft | 141 kts | 267° |
| 2026-05-08 11:43 | 38.58596 | -28.46362 | 1111 ft | 140 kts | 268° |
| 2026-05-08 11:44 | 38.58385 | -28.47567 | 1109 ft | 138 kts | 267° |
| 2026-05-08 11:44 | 38.58190 | -28.48764 | 1110 ft | 137 kts | 268° |
| 2026-05-08 11:44 | 38.57971 | -28.49949 | 1107 ft | 140 kts | 259° |
| 2026-05-08 11:44 | 38.57356 | -28.50974 | 1103 ft | 157 kts | 220° |
| 2026-05-08 11:45 | 38.56287 | -28.51351 | 1106 ft | 164 kts | 174° |
| 2026-05-08 11:45 | 38.55267 | -28.50817 | 1055 ft | 155 kts | 129° |
| 2026-05-08 11:45 | 38.54792 | -28.49708 | 961 ft | 135 kts | 83° |
| 2026-05-08 11:45 | 38.54944 | -28.48551 | 729 ft | 132 kts | 71° |
| 2026-05-08 11:46 | 38.55118 | -28.47379 | 526 ft | 136 kts | 82° |
| 2026-05-08 11:46 | 38.55233 | -28.46189 | 334 ft | 134 kts | 80° |
| 2026-05-08 11:46 | 38.55344 | -28.45004 | 157 ft | 134 kts | 79° |
| 2026-05-08 11:46 | 38.55446 | -28.44034 | 141 ft | 80 kts | 83° |
| 2026-05-08 11:47 | 38.55499 | -28.43503 | 140 ft | 33 kts | 81° |
| 2026-05-08 11:47 | 38.55525 | -28.43260 | 136 ft | 18 kts | 81° |
| 2026-05-08 11:47 | 38.55548 | -28.43168 | 141 ft | 6 kts | 133° |
| 2026-05-08 11:47 | 38.55531 | -28.43203 | 138 ft | 9 kts | 257° |
| 2026-05-08 11:48 | 38.55515 | -28.43344 | 141 ft | 18 kts | 263° |
| 2026-05-08 11:48 | 38.55498 | -28.43512 | 139 ft | 20 kts | 264° |
| 2026-05-08 11:48 | 38.55480 | -28.43695 | 142 ft | 22 kts | 263° |
| 2026-05-08 11:48 | 38.55460 | -28.43896 | 142 ft | 25 kts | 262° |
| 2026-05-08 11:49 | 38.55437 | -28.44090 | 138 ft | 20 kts | 246° |
| 2026-05-08 11:49 | 38.55345 | -28.44127 | 140 ft | 12 kts | 186° |
| 2026-05-08 11:49 | 38.55270 | -28.44157 | 140 ft | 8 kts | 225° |
| 2026-05-08 11:49 | 38.55273 | -28.44182 | 140 ft | 2 kts | 296° |
| 2026-05-08 11:50 | 38.55273 | -28.44183 | 140 ft | 0 kts | 296° |